createdAt,value
2022-10-09T00:00:11.520Z,5.00
2022-10-09T00:03:00.171Z,5.20
2022-10-09T00:05:46.135Z,4.83
2022-10-09T00:08:32.152Z,3.23
2022-10-09T00:11:21.417Z,3.57
2022-10-09T00:14:07.210Z,3.27
2022-10-09T00:16:54.769Z,3.20
2022-10-09T00:19:40.193Z,4.43
2022-10-09T00:22:25.738Z,2.90
2022-10-09T00:25:11.126Z,3.20
2022-10-09T00:28:00.376Z,3.77
2022-10-09T00:30:45.988Z,3.37
2022-10-09T00:33:31.230Z,2.63
2022-10-09T00:36:19.995Z,4.53
2022-10-09T00:39:05.900Z,2.50
2022-10-09T00:41:51.233Z,3.13
2022-10-09T00:45:00.252Z,2.83
2022-10-09T00:47:50.049Z,6.00
2022-10-09T00:50:57.840Z,2.07
2022-10-09T00:53:43.492Z,3.53
2022-10-09T00:56:29.100Z,2.27
2022-10-09T00:59:15.109Z,3.40
2022-10-09T01:02:00.657Z,3.67
2022-10-09T01:04:46.011Z,3.67
2022-10-09T01:07:37.330Z,3.20
2022-10-09T01:10:50.291Z,3.87
2022-10-09T01:13:46.413Z,4.97
2022-10-09T01:16:38.691Z,3.87
2022-10-09T01:19:53.508Z,6.07
2022-10-09T01:22:45.105Z,3.20
2022-10-09T01:26:19.800Z,3.63
2022-10-09T01:29:08.975Z,2.57
2022-10-09T01:31:55.734Z,2.63
2022-10-09T01:34:43.553Z,2.80
2022-10-09T01:37:31.207Z,3.03
2022-10-09T01:40:18.201Z,3.73
2022-10-09T01:43:04.324Z,3.67
2022-10-09T01:45:50.089Z,4.00
2022-10-09T01:48:36.169Z,5.13
2022-10-09T01:51:27.673Z,4.07
2022-10-09T01:54:16.236Z,4.93
2022-10-09T01:57:05.007Z,4.07
2022-10-09T01:59:52.481Z,2.93
2022-10-09T02:02:39.885Z,3.03
2022-10-09T02:05:28.754Z,3.43
2022-10-09T02:08:18.265Z,5.70
2022-10-09T02:11:04.443Z,3.30
2022-10-09T02:13:52.976Z,3.17
2022-10-09T02:16:39.624Z,3.43
2022-10-09T02:19:43.968Z,3.07
2022-10-09T02:22:31.913Z,2.50
2022-10-09T02:25:18.440Z,4.63
2022-10-09T02:28:05.604Z,2.43
2022-10-09T02:31:05.433Z,3.30
2022-10-09T02:34:04.207Z,3.40
2022-10-09T02:36:49.859Z,4.47
2022-10-09T02:39:35.975Z,3.07
2022-10-09T02:42:22.165Z,3.00
2022-10-09T02:45:08.725Z,3.53
2022-10-09T02:47:54.131Z,7.17
2022-10-09T02:50:39.639Z,3.03
2022-10-09T02:53:25.064Z,3.63
2022-10-09T02:56:10.598Z,2.80
2022-10-09T02:58:56.723Z,4.47
2022-10-09T03:01:42.551Z,3.87
2022-10-09T03:04:28.416Z,4.23
2022-10-09T03:07:13.897Z,4.57
2022-10-09T03:09:59.199Z,3.17
2022-10-09T03:12:45.313Z,2.57
2022-10-09T03:15:35.219Z,3.03
2022-10-09T03:18:20.596Z,3.03
2022-10-09T03:21:07.404Z,2.77
2022-10-09T03:23:53.951Z,4.17
2022-10-09T03:26:39.392Z,3.13
2022-10-09T03:29:24.965Z,3.60
2022-10-09T03:32:10.539Z,3.23
2022-10-09T03:34:57.154Z,3.80
2022-10-09T03:37:43.025Z,3.73
2022-10-09T03:40:28.446Z,4.33
2022-10-09T03:43:14.066Z,2.20
2022-10-09T03:46:01.196Z,2.40
2022-10-09T03:48:47.344Z,3.83
2022-10-09T03:51:33.136Z,5.03
2022-10-09T03:54:18.527Z,2.67
2022-10-09T03:57:04.214Z,3.43
2022-10-09T03:59:49.736Z,3.47
2022-10-09T04:02:35.628Z,3.47
2022-10-09T04:05:21.492Z,2.90
2022-10-09T04:08:07.141Z,3.83
2022-10-09T04:10:59.649Z,3.27
2022-10-09T04:13:45.523Z,3.57
2022-10-09T04:16:31.407Z,3.67
2022-10-09T04:19:16.880Z,3.37
2022-10-09T04:22:03.193Z,2.57
2022-10-09T04:24:48.505Z,8.63
2022-10-09T04:27:34.052Z,4.43
2022-10-09T04:30:19.686Z,3.73
2022-10-09T04:33:07.960Z,6.07
2022-10-09T04:35:58.159Z,6.23
2022-10-09T04:38:43.507Z,7.63
2022-10-09T04:41:29.014Z,9.30
2022-10-09T04:44:14.479Z,6.03
2022-10-09T04:46:59.976Z,3.60
2022-10-09T04:49:45.580Z,4.40
2022-10-09T04:52:31.228Z,4.27
2022-10-09T04:55:16.885Z,6.37
2022-10-09T04:58:02.931Z,4.27
2022-10-09T05:00:49.386Z,3.00
2022-10-09T05:03:36.157Z,6.33
2022-10-09T05:06:22.875Z,8.70
2022-10-09T05:09:08.388Z,3.40
2022-10-09T05:11:53.980Z,3.33
2022-10-09T05:14:39.594Z,3.27
2022-10-09T05:17:25.186Z,5.23
2022-10-09T05:20:10.724Z,4.33
2022-10-09T05:22:56.281Z,5.47
2022-10-09T05:25:41.769Z,5.23
2022-10-09T05:28:27.301Z,4.27
2022-10-09T05:31:25.850Z,5.43
2022-10-09T05:34:11.702Z,2.93
2022-10-09T05:37:05.782Z,2.70
2022-10-09T05:40:09.353Z,5.60
2022-10-09T05:42:59.209Z,5.33
2022-10-09T05:45:44.891Z,5.70
2022-10-09T05:48:30.496Z,6.03
2022-10-09T05:51:21.625Z,5.70
2022-10-09T05:54:07.508Z,2.83
2022-10-09T05:56:53.148Z,3.70
2022-10-09T05:59:38.757Z,5.50
2022-10-09T06:02:24.492Z,3.50
2022-10-09T06:05:10.121Z,4.23
2022-10-09T06:07:55.591Z,5.27
2022-10-09T06:10:41.224Z,4.43
2022-10-09T06:13:27.297Z,3.43
2022-10-09T06:16:14.286Z,4.30
2022-10-09T06:19:00.399Z,3.77
2022-10-09T06:21:47.215Z,3.23
2022-10-09T06:24:32.637Z,3.77
2022-10-09T06:27:18.188Z,3.57
2022-10-09T06:30:03.885Z,3.70
2022-10-09T06:32:49.974Z,4.07
2022-10-09T06:35:36.193Z,4.07
2022-10-09T06:38:21.652Z,4.13
2022-10-09T06:41:16.226Z,5.90
2022-10-09T06:44:04.783Z,2.63
2022-10-09T06:46:50.410Z,4.33
2022-10-09T06:49:35.977Z,3.67
2022-10-09T06:52:21.240Z,3.63
2022-10-09T06:55:07.280Z,4.07
2022-10-09T06:57:53.012Z,4.20
2022-10-09T07:00:38.692Z,3.57
2022-10-09T07:03:24.322Z,3.70
2022-10-09T07:06:16.731Z,5.77
2022-10-09T07:09:05.352Z,5.27
2022-10-09T07:11:51.504Z,4.93
2022-10-09T07:14:37.317Z,5.97
2022-10-09T07:17:22.829Z,4.70
2022-10-09T07:20:08.507Z,7.57
2022-10-09T07:22:54.229Z,4.73
2022-10-09T07:25:41.534Z,2.83
2022-10-09T07:28:30.249Z,5.03
2022-10-09T07:31:16.614Z,7.10
2022-10-09T07:34:02.814Z,4.73
2022-10-09T07:36:48.612Z,6.33
2022-10-09T07:39:35.480Z,4.43
2022-10-09T07:42:20.988Z,5.63
2022-10-09T07:45:07.001Z,9.33
2022-10-09T07:47:52.377Z,5.93
2022-10-09T07:50:37.919Z,4.17
2022-10-09T07:53:23.796Z,2.80
2022-10-09T07:56:15.485Z,3.60
2022-10-09T07:59:03.798Z,3.70
2022-10-09T08:01:49.380Z,2.90
2022-10-09T08:04:37.099Z,3.07
2022-10-09T08:07:22.753Z,3.03
2022-10-09T08:10:08.686Z,5.03
2022-10-09T08:12:53.990Z,3.90
2022-10-09T08:15:43.665Z,2.37
2022-10-09T08:18:29.395Z,5.73
2022-10-09T08:21:17.402Z,2.53
2022-10-09T08:24:03.006Z,3.20
2022-10-09T08:26:48.777Z,2.60
2022-10-09T08:29:37.960Z,3.97
2022-10-09T08:32:25.650Z,5.17
2022-10-09T08:35:11.210Z,2.47
2022-10-09T08:37:56.753Z,3.03
2022-10-09T08:40:45.204Z,3.50
2022-10-09T08:43:37.708Z,5.03
2022-10-09T08:46:33.532Z,6.93
2022-10-09T08:49:47.833Z,3.23
2022-10-09T08:52:58.957Z,5.63
2022-10-09T08:55:53.722Z,4.90
2022-10-09T08:58:41.442Z,4.43
2022-10-09T09:02:01.037Z,5.63
2022-10-09T09:05:02.464Z,5.70
2022-10-09T09:08:10.714Z,4.40
2022-10-09T09:11:16.079Z,4.43
2022-10-09T09:14:18.675Z,6.97
2022-10-09T09:17:38.548Z,4.18
2022-10-09T09:20:40.295Z,4.07
2022-10-09T09:23:33.927Z,5.05
2022-10-09T09:26:21.718Z,4.57
2022-10-09T09:29:07.503Z,5.15
2022-10-09T09:32:00.919Z,3.83
2022-10-09T09:34:47.470Z,6.25
2022-10-09T09:37:33.249Z,3.55
2022-10-09T09:40:37.664Z,4.05
2022-10-09T09:43:26.050Z,7.72
2022-10-09T09:46:19.658Z,5.20
2022-10-09T09:49:19.736Z,6.97
2022-10-09T09:52:09.310Z,2.92
2022-10-09T09:54:57.410Z,3.20
2022-10-09T09:57:45.137Z,4.50
2022-10-09T10:00:31.366Z,3.88
2022-10-09T10:03:18.304Z,4.22
2022-10-09T10:06:04.812Z,4.32
2022-10-09T10:09:00.846Z,2.15
2022-10-09T10:12:04.007Z,4.90
2022-10-09T10:14:50.255Z,4.32
2022-10-09T10:17:37.080Z,2.00
2022-10-09T10:20:22.610Z,2.75
2022-10-09T10:23:33.199Z,2.47
2022-10-09T10:26:57.667Z,3.30
2022-10-09T10:29:45.527Z,1.98
2022-10-09T10:33:23.280Z,6.15
2022-10-09T10:36:11.006Z,5.18
2022-10-09T10:39:09.134Z,3.00
2022-10-09T10:41:57.865Z,1.98
2022-10-09T10:44:54.425Z,5.07
2022-10-09T10:47:47.558Z,3.88
2022-10-09T10:50:44.508Z,3.17
2022-10-09T10:53:52.301Z,2.00
2022-10-09T10:57:00.653Z,1.25
2022-10-09T10:59:51.826Z,2.55
2022-10-09T11:02:59.098Z,2.28
2022-10-09T11:05:53.814Z,3.22
2022-10-09T11:09:08.276Z,3.55
2022-10-09T11:12:24.592Z,1.35
2022-10-09T11:15:38.179Z,1.90
2022-10-09T11:19:00.868Z,2.33
2022-10-09T11:21:58.843Z,1.58
2022-10-09T11:25:12.832Z,2.53
2022-10-09T11:28:09.391Z,3.22
2022-10-09T11:31:02.714Z,2.60
2022-10-09T11:33:58.241Z,2.47
2022-10-09T11:36:45.396Z,0.73
2022-10-09T11:39:32.953Z,4.15
2022-10-09T11:42:24.875Z,1.50
2022-10-09T11:45:27.322Z,2.88
2022-10-09T11:48:26.360Z,4.20
2022-10-09T11:51:17.912Z,1.60
2022-10-09T11:54:05.541Z,2.08
2022-10-09T11:57:00.012Z,1.60
2022-10-09T11:59:45.969Z,5.85
2022-10-09T12:02:32.105Z,2.05
2022-10-09T12:05:41.377Z,4.20
2022-10-09T12:08:27.758Z,11.57
2022-10-09T12:11:16.539Z,1.30
2022-10-09T12:14:08.265Z,3.10
2022-10-09T12:16:53.944Z,6.30
2022-10-09T12:19:40.975Z,4.43
2022-10-09T12:22:34.597Z,6.00
2022-10-09T12:25:40.528Z,3.70
2022-10-09T12:28:34.485Z,2.80
2022-10-09T12:31:34.969Z,3.42
2022-10-09T12:34:32.728Z,3.60
2022-10-09T12:37:30.597Z,2.55
2022-10-09T12:40:21.614Z,4.40
2022-10-09T12:43:08.112Z,6.28
2022-10-09T12:45:54.662Z,4.65
2022-10-09T12:48:43.288Z,1.98
2022-10-09T12:51:31.569Z,3.83
2022-10-09T12:54:17.241Z,2.40
2022-10-09T12:57:02.973Z,7.05
2022-10-09T12:59:49.736Z,25.83
2022-10-09T13:02:35.642Z,157.82
2022-10-09T13:05:21.141Z,672.53
2022-10-09T13:08:18.193Z,683.03
2022-10-09T13:11:38.076Z,548.40
2022-10-09T13:14:58.022Z,175.43
2022-10-09T13:17:43.695Z,169.10
2022-10-09T13:20:32.012Z,144.27
2022-10-09T13:23:33.319Z,117.18
2022-10-09T13:26:26.903Z,80.68
2022-10-09T13:29:14.733Z,78.90
2022-10-09T13:32:00.358Z,57.90
2022-10-09T13:34:46.993Z,63.05
2022-10-09T13:37:32.671Z,55.90
2022-10-09T13:40:21.767Z,39.97
2022-10-09T13:43:07.391Z,28.95
2022-10-09T13:45:54.076Z,27.30
2022-10-09T13:48:40.490Z,23.08
2022-10-09T13:51:25.900Z,23.27
2022-10-09T13:54:11.416Z,23.15
2022-10-09T13:56:56.981Z,19.48
2022-10-09T13:59:42.620Z,20.65
2022-10-09T14:02:28.200Z,15.68
2022-10-09T14:05:13.837Z,12.93
2022-10-09T14:07:59.300Z,14.10
2022-10-09T14:10:45.201Z,11.93
2022-10-09T14:13:30.766Z,9.43
2022-10-09T14:16:16.550Z,12.30
2022-10-09T14:19:04.131Z,11.27
2022-10-09T14:21:49.515Z,10.95
2022-10-09T14:24:35.038Z,10.13
2022-10-09T14:27:20.492Z,12.20
2022-10-09T14:30:06.707Z,17.58
2022-10-09T14:32:52.826Z,18.23
2022-10-09T14:35:38.320Z,12.00
2022-10-09T14:38:24.094Z,7.45
2022-10-09T14:41:09.910Z,11.60
2022-10-09T14:43:59.352Z,10.13
2022-10-09T14:46:45.523Z,7.05
2022-10-09T14:49:31.228Z,7.38
2022-10-09T14:52:17.041Z,7.35
2022-10-09T14:55:02.587Z,7.70
2022-10-09T14:57:47.944Z,9.25
2022-10-09T15:00:33.660Z,4.10
2022-10-09T15:03:19.588Z,5.03
2022-10-09T15:06:07.486Z,5.25
2022-10-09T15:08:59.248Z,6.28
2022-10-09T15:11:46.983Z,6.38
2022-10-09T15:14:32.533Z,4.93
2022-10-09T15:17:18.379Z,6.03
2022-10-09T15:20:04.804Z,6.85
2022-10-09T15:22:50.303Z,3.63
2022-10-09T15:25:36.120Z,3.78
2022-10-09T15:28:21.870Z,4.53
2022-10-09T15:31:16.487Z,4.82
2022-10-09T15:34:02.885Z,2.58
2022-10-09T15:36:48.987Z,3.20
2022-10-09T15:39:35.284Z,5.65
2022-10-09T15:42:20.621Z,6.32
2022-10-09T15:45:07.750Z,8.73
2022-10-09T15:47:53.589Z,6.03
2022-10-09T15:50:39.045Z,6.38
2022-10-09T15:53:25.372Z,5.13
2022-10-09T15:56:14.361Z,4.43
2022-10-09T15:58:59.953Z,4.88
2022-10-09T16:01:45.513Z,5.05
2022-10-09T16:04:31.092Z,4.55
2022-10-09T16:07:16.821Z,4.30
2022-10-09T16:10:02.335Z,7.85
2022-10-09T16:12:48.014Z,5.40
2022-10-09T16:15:33.862Z,5.38
2022-10-09T16:18:22.230Z,4.75
2022-10-09T16:21:14.211Z,5.93
2022-10-09T16:24:00.652Z,4.13
2022-10-09T16:26:46.467Z,4.43
2022-10-09T16:29:32.277Z,5.72
2022-10-09T16:32:17.944Z,8.13
2022-10-09T16:35:03.820Z,4.80
2022-10-09T16:37:51.957Z,8.35
2022-10-09T16:43:51.804Z,4.65
2022-10-09T16:46:37.614Z,6.55
2022-10-09T16:49:25.011Z,4.10
2022-10-09T16:52:12.088Z,6.47
2022-10-09T16:55:00.395Z,4.45
2022-10-09T16:57:46.117Z,3.40
2022-10-09T17:00:31.960Z,3.42
2022-10-09T17:03:17.843Z,3.83
2022-10-09T17:06:14.518Z,6.03
2022-10-09T17:09:00.563Z,2.65
2022-10-09T17:11:46.673Z,4.05
2022-10-09T17:14:32.107Z,2.50
2022-10-09T17:17:17.847Z,3.97
2022-10-09T17:20:03.478Z,3.90
2022-10-09T17:22:49.478Z,3.25
2022-10-09T17:25:40.092Z,3.13
2022-10-09T17:28:26.060Z,4.22
2022-10-09T17:31:16.547Z,4.35
2022-10-09T17:34:03.962Z,3.97
2022-10-09T17:36:49.741Z,3.35
2022-10-09T17:39:35.242Z,5.22
2022-10-09T17:42:20.588Z,3.78
2022-10-09T17:45:06.814Z,5.47
2022-10-09T17:47:52.337Z,5.18
2022-10-09T17:50:37.868Z,6.43
2022-10-09T17:53:25.324Z,5.00
2022-10-09T17:56:11.742Z,6.43
2022-10-09T17:58:59.626Z,6.88
2022-10-09T18:01:45.569Z,5.90
2022-10-09T18:04:31.452Z,5.68
2022-10-09T18:07:19.488Z,7.10
2022-10-09T18:10:06.184Z,4.75
2022-10-09T18:12:51.580Z,5.93
2022-10-09T18:15:41.685Z,6.50
2022-10-09T18:18:27.696Z,6.30
2022-10-09T18:21:16.968Z,5.05
2022-10-09T18:24:02.826Z,6.40
2022-10-09T18:26:49.578Z,4.80
2022-10-09T18:29:36.915Z,5.63
2022-10-09T18:32:22.982Z,6.18
2022-10-09T18:35:08.920Z,5.90
2022-10-09T18:37:54.371Z,4.70
2022-10-09T18:40:45.538Z,6.18
2022-10-09T18:43:31.812Z,5.03
2022-10-09T18:46:19.276Z,8.45
2022-10-09T18:49:09.537Z,8.25
2022-10-09T18:51:57.279Z,12.00
2022-10-09T18:54:47.419Z,12.75
2022-10-09T18:57:34.296Z,10.27
2022-10-09T19:00:19.997Z,9.85
2022-10-09T19:03:05.669Z,5.78
2022-10-09T19:05:51.651Z,4.65
2022-10-09T19:08:37.995Z,7.32
2022-10-09T19:11:23.796Z,6.32
2022-10-09T19:14:09.529Z,6.60
2022-10-09T19:16:55.145Z,10.55
2022-10-09T19:19:41.367Z,9.85
2022-10-09T19:22:26.943Z,9.77
2022-10-09T19:25:12.553Z,8.27
2022-10-09T19:27:58.453Z,8.07
2022-10-09T19:30:45.132Z,9.27
2022-10-09T19:33:31.134Z,8.02
2022-10-09T19:36:17.133Z,9.45
2022-10-09T19:39:08.047Z,6.75
2022-10-09T19:41:53.688Z,8.18
2022-10-09T19:44:42.653Z,6.22
2022-10-09T19:47:28.452Z,8.35
2022-10-09T19:50:15.099Z,6.82
2022-10-09T19:53:03.407Z,9.65
2022-10-09T19:55:49.445Z,8.98
2022-10-09T19:58:35.235Z,9.07
2022-10-09T20:01:24.757Z,11.82
2022-10-09T20:04:11.127Z,10.02
2022-10-09T20:06:56.771Z,11.00
2022-10-09T20:09:42.413Z,10.60
2022-10-09T20:12:27.953Z,8.75
2022-10-09T20:15:13.336Z,10.13
2022-10-09T20:17:59.016Z,10.23
2022-10-09T20:20:48.610Z,6.50
2022-10-09T20:23:33.981Z,6.50
2022-10-09T20:26:21.401Z,5.43
2022-10-09T20:29:07.368Z,8.50
2022-10-09T20:31:54.983Z,4.82
2022-10-09T20:34:40.475Z,10.70
2022-10-09T20:37:25.895Z,4.68
2022-10-09T20:40:11.377Z,4.47
2022-10-09T20:42:57.011Z,5.63
2022-10-09T20:45:44.119Z,4.60
2022-10-09T20:48:29.949Z,7.13
2022-10-09T20:51:16.315Z,7.95
2022-10-09T20:54:02.379Z,4.35
2022-10-09T20:56:48.732Z,4.50
2022-10-09T20:59:34.603Z,5.97
2022-10-09T21:02:20.036Z,4.78
2022-10-09T21:05:08.185Z,4.55
2022-10-09T21:07:53.994Z,4.72
2022-10-09T21:10:44.708Z,4.75
2022-10-09T21:13:30.534Z,9.15
2022-10-09T21:16:19.264Z,6.03
2022-10-09T21:19:05.839Z,6.03
2022-10-09T21:21:51.669Z,4.35
2022-10-09T21:24:37.244Z,4.65
2022-10-09T21:27:22.660Z,4.50
2022-10-09T21:30:08.723Z,6.82
2022-10-09T21:32:54.884Z,4.25
2022-10-09T21:35:42.773Z,4.80
2022-10-09T21:38:28.699Z,3.63
2022-10-09T21:41:14.272Z,6.22
2022-10-09T21:44:00.431Z,4.28
2022-10-09T21:46:46.287Z,6.85
2022-10-09T21:49:31.766Z,4.20
2022-10-09T21:52:18.485Z,4.80
2022-10-09T21:55:04.552Z,4.03
2022-10-09T21:57:50.436Z,5.07
2022-10-09T22:00:36.985Z,6.65
2022-10-09T22:03:25.061Z,3.42
2022-10-09T22:06:17.776Z,4.97
2022-10-09T22:09:04.677Z,3.72
2022-10-09T22:11:50.149Z,3.67
2022-10-09T22:14:35.676Z,4.72
2022-10-09T22:17:21.046Z,3.53
2022-10-09T22:20:06.935Z,4.97
2022-10-09T22:22:52.972Z,4.80
2022-10-09T22:25:39.411Z,3.03
2022-10-09T22:28:25.398Z,4.40
2022-10-09T22:31:16.286Z,4.73
2022-10-09T22:34:02.168Z,3.60
2022-10-09T22:36:47.718Z,3.57
2022-10-09T22:39:33.410Z,6.10
2022-10-09T22:42:19.235Z,4.38
2022-10-09T22:45:06.392Z,3.33
2022-10-09T22:47:51.900Z,6.20
2022-10-09T22:50:37.350Z,2.63
2022-10-09T22:53:23.024Z,2.83
2022-10-09T22:56:12.084Z,4.10
2022-10-09T22:58:57.712Z,6.00
2022-10-09T23:01:50.035Z,4.63
2022-10-09T23:04:35.781Z,4.40
2022-10-09T23:07:21.509Z,4.00
2022-10-09T23:10:07.033Z,4.57
2022-10-09T23:12:52.824Z,4.73
2022-10-09T23:15:38.633Z,3.97
2022-10-09T23:18:24.280Z,3.27
2022-10-09T23:21:12.229Z,3.30
2022-10-09T23:23:58.084Z,4.57
2022-10-09T23:26:45.096Z,5.53
2022-10-09T23:29:30.451Z,2.97
2022-10-09T23:32:15.875Z,3.70
2022-10-09T23:35:01.381Z,2.80
2022-10-09T23:37:46.840Z,2.70
2022-10-09T23:40:32.552Z,3.60
2022-10-09T23:43:18.177Z,2.20
2022-10-09T23:46:06.128Z,4.37
2022-10-09T23:48:52.722Z,1.83
2022-10-09T23:51:38.515Z,2.37
2022-10-09T23:54:23.922Z,3.10
2022-10-09T23:57:09.437Z,3.70
2022-10-09T23:59:54.783Z,2.33
